sensor_id;sensor_type;location;lat;lon;timestamp;pressure;altitude;pressure_sealevel;temperature
62180;BMP280;48172;53.374;10.722;2022-10-16T00:00:36;101067.25;;;22.65
62180;BMP280;48172;53.374;10.722;2022-10-16T00:03:03;101072.69;;;22.65
62180;BMP280;48172;53.374;10.722;2022-10-16T00:05:30;101080.84;;;22.65
62180;BMP280;48172;53.374;10.722;2022-10-16T00:07:57;101070.41;;;22.63
62180;BMP280;48172;53.374;10.722;2022-10-16T00:10:23;101082.56;;;22.62
62180;BMP280;48172;53.374;10.722;2022-10-16T00:12:50;101087.50;;;22.64
62180;BMP280;48172;53.374;10.722;2022-10-16T00:15:16;101085.53;;;22.64
62180;BMP280;48172;53.374;10.722;2022-10-16T00:17:43;101079.06;;;22.62
62180;BMP280;48172;53.374;10.722;2022-10-16T00:20:10;101078.59;;;22.63
62180;BMP280;48172;53.374;10.722;2022-10-16T00:22:36;101085.28;;;22.62
62180;BMP280;48172;53.374;10.722;2022-10-16T00:25:03;101087.25;;;22.62
62180;BMP280;48172;53.374;10.722;2022-10-16T00:27:29;101084.53;;;22.62
62180;BMP280;48172;53.374;10.722;2022-10-16T00:29:56;101085.28;;;22.62
62180;BMP280;48172;53.374;10.722;2022-10-16T00:32:27;101091.91;;;22.61
62180;BMP280;48172;53.374;10.722;2022-10-16T00:34:54;101102.50;;;22.59
62180;BMP280;48172;53.374;10.722;2022-10-16T00:37:21;101095.84;;;22.60
62180;BMP280;48172;53.374;10.722;2022-10-16T00:39:47;101102.50;;;22.59
62180;BMP280;48172;53.374;10.722;2022-10-16T00:42:18;101105.97;;;22.60
62180;BMP280;48172;53.374;10.722;2022-10-16T00:44:53;101105.22;;;22.59
62180;BMP280;48172;53.374;10.722;2022-10-16T00:47:29;101102.50;;;22.59
62180;BMP280;48172;53.374;10.722;2022-10-16T00:50:01;101102.97;;;22.58
62180;BMP280;48172;53.374;10.722;2022-10-16T00:52:28;101101.00;;;22.58
62180;BMP280;48172;53.374;10.722;2022-10-16T00:54:56;101110.41;;;22.57
62180;BMP280;48172;53.374;10.722;2022-10-16T00:57:23;101105.72;;;22.58
62180;BMP280;48172;53.374;10.722;2022-10-16T00:59:50;101106.88;;;22.57
62180;BMP280;48172;53.374;10.722;2022-10-16T01:02:17;101108.44;;;22.58
62180;BMP280;48172;53.374;10.722;2022-10-16T01:04:52;101106.13;;;22.56
62180;BMP280;48172;53.374;10.722;2022-10-16T01:10:19;101102.66;;;22.56
62180;BMP280;48172;53.374;10.722;2022-10-16T01:12:50;101106.63;;;22.55
62180;BMP280;48172;53.374;10.722;2022-10-16T01:15:37;101112.81;;;22.55
62180;BMP280;48172;53.374;10.722;2022-10-16T01:18:16;101118.25;;;22.55
62180;BMP280;48172;53.374;10.722;2022-10-16T01:20:54;101118.72;;;22.54
62180;BMP280;48172;53.374;10.722;2022-10-16T01:28:46;101126.59;;;22.52
62180;BMP280;48172;53.374;10.722;2022-10-16T01:31:18;101127.31;;;22.52
62180;BMP280;48172;53.374;10.722;2022-10-16T01:33:51;101127.31;;;22.52
62180;BMP280;48172;53.374;10.722;2022-10-16T01:36:35;101129.31;;;22.52
62180;BMP280;48172;53.374;10.722;2022-10-16T01:39:02;101127.81;;;22.51
62180;BMP280;48172;53.374;10.722;2022-10-16T01:41:36;101132.75;;;22.52
62180;BMP280;48172;53.374;10.722;2022-10-16T01:44:11;101131.28;;;22.51
62180;BMP280;48172;53.374;10.722;2022-10-16T01:46:42;101134.75;;;22.52
62180;BMP280;48172;53.374;10.722;2022-10-16T01:49:10;101129.31;;;22.52
62180;BMP280;48172;53.374;10.722;2022-10-16T01:51:38;101125.84;;;22.51
62180;BMP280;48172;53.374;10.722;2022-10-16T01:54:07;101135.97;;;22.51
62180;BMP280;48172;53.374;10.722;2022-10-16T01:56:34;101129.31;;;22.52
62180;BMP280;48172;53.374;10.722;2022-10-16T01:59:09;101131.72;;;22.50
62180;BMP280;48172;53.374;10.722;2022-10-16T02:01:39;101131.72;;;22.50
62180;BMP280;48172;53.374;10.722;2022-10-16T02:04:28;101129.47;;;22.48
62180;BMP280;48172;53.374;10.722;2022-10-16T02:06:55;101132.19;;;22.48
62180;BMP280;48172;53.374;10.722;2022-10-16T02:09:22;101129.47;;;22.48
62180;BMP280;48172;53.374;10.722;2022-10-16T02:11:50;101138.84;;;22.47
62180;BMP280;48172;53.374;10.722;2022-10-16T02:14:18;101139.63;;;22.48
62180;BMP280;48172;53.374;10.722;2022-10-16T02:16:46;101146.25;;;22.47
62180;BMP280;48172;53.374;10.722;2022-10-16T02:19:13;101150.53;;;22.48
62180;BMP280;48172;53.374;10.722;2022-10-16T02:21:45;101144.28;;;22.47
62180;BMP280;48172;53.374;10.722;2022-10-16T02:24:20;101146.25;;;22.47
62180;BMP280;48172;53.374;10.722;2022-10-16T02:27:03;101141.13;;;22.49
62180;BMP280;48172;53.374;10.722;2022-10-16T02:29:32;101152.47;;;22.47
62180;BMP280;48172;53.374;10.722;2022-10-16T02:32:01;101145.34;;;22.50
62180;BMP280;48172;53.374;10.722;2022-10-16T02:34:30;101148.97;;;22.47
62180;BMP280;48172;53.374;10.722;2022-10-16T02:37:00;101143.22;;;22.45
62180;BMP280;48172;53.374;10.722;2022-10-16T02:39:28;101136.56;;;22.46
62180;BMP280;48172;53.374;10.722;2022-10-16T02:41:55;101135.06;;;22.45
62180;BMP280;48172;53.374;10.722;2022-10-16T02:44:22;101140.50;;;22.45
62180;BMP280;48172;53.374;10.722;2022-10-16T02:46:48;101139.03;;;22.44
62180;BMP280;48172;53.374;10.722;2022-10-16T02:49:15;101135.81;;;22.45
62180;BMP280;48172;53.374;10.722;2022-10-16T02:51:41;101140.22;;;22.43
62180;BMP280;48172;53.374;10.722;2022-10-16T02:54:08;101139.75;;;22.44
62180;BMP280;48172;53.374;10.722;2022-10-16T02:56:34;101145.66;;;22.43
62180;BMP280;48172;53.374;10.722;2022-10-16T02:59:01;101158.09;;;22.44
62180;BMP280;48172;53.374;10.722;2022-10-16T03:01:27;101152.31;;;22.42
62180;BMP280;48172;53.374;10.722;2022-10-16T03:03:54;101161.53;;;22.44
62180;BMP280;48172;53.374;10.722;2022-10-16T03:06:20;101160.06;;;22.43
62180;BMP280;48172;53.374;10.722;2022-10-16T03:08:47;101159.72;;;22.41
62180;BMP280;48172;53.374;10.722;2022-10-16T03:11:13;101151.56;;;22.41
62180;BMP280;48172;53.374;10.722;2022-10-16T03:13:40;101156.25;;;22.41
62180;BMP280;48172;53.374;10.722;2022-10-16T03:16:06;101156.25;;;22.41
62180;BMP280;48172;53.374;10.722;2022-10-16T03:18:32;101148.06;;;22.41
62180;BMP280;48172;53.374;10.722;2022-10-16T03:20:59;101148.06;;;22.41
62180;BMP280;48172;53.374;10.722;2022-10-16T03:23:25;101143.88;;;22.40
62180;BMP280;48172;53.374;10.722;2022-10-16T03:25:52;101142.19;;;22.42
62180;BMP280;48172;53.374;10.722;2022-10-16T03:28:20;101138.44;;;22.40
62180;BMP280;48172;53.374;10.722;2022-10-16T03:30:46;101150.53;;;22.39
62180;BMP280;48172;53.374;10.722;2022-10-16T03:33:13;101143.53;;;22.38
62180;BMP280;48172;53.374;10.722;2022-10-16T03:35:39;101141.56;;;22.38
62180;BMP280;48172;53.374;10.722;2022-10-16T03:38:05;101138.84;;;22.38
62180;BMP280;48172;53.374;10.722;2022-10-16T03:40:32;101139.63;;;22.39
62180;BMP280;48172;53.374;10.722;2022-10-16T03:42:59;101144.28;;;22.38
62180;BMP280;48172;53.374;10.722;2022-10-16T03:45:25;101140.06;;;22.37
62180;BMP280;48172;53.374;10.722;2022-10-16T03:47:53;101146.25;;;22.38
62180;BMP280;48172;53.374;10.722;2022-10-16T03:50:19;101142.78;;;22.37
62180;BMP280;48172;53.374;10.722;2022-10-16T03:52:46;101148.22;;;22.37
62180;BMP280;48172;53.374;10.722;2022-10-16T03:55:12;101148.72;;;22.36
62180;BMP280;48172;53.374;10.722;2022-10-16T03:57:39;101148.72;;;22.36
62180;BMP280;48172;53.374;10.722;2022-10-16T04:00:06;101148.22;;;22.37
62180;BMP280;48172;53.374;10.722;2022-10-16T04:02:32;101143.25;;;22.36
62180;BMP280;48172;53.374;10.722;2022-10-16T04:04:59;101154.16;;;22.36
62180;BMP280;48172;53.374;10.722;2022-10-16T04:07:25;101156.13;;;22.35
62180;BMP280;48172;53.374;10.722;2022-10-16T04:09:52;101162.31;;;22.36
62180;BMP280;48172;53.374;10.722;2022-10-16T04:12:19;101175.94;;;22.36
62180;BMP280;48172;53.374;10.722;2022-10-16T04:14:46;101170.16;;;22.33
62180;BMP280;48172;53.374;10.722;2022-10-16T04:17:12;101159.59;;;22.36
62180;BMP280;48172;53.374;10.722;2022-10-16T04:19:39;101161.97;;;22.33
62180;BMP280;48172;53.374;10.722;2022-10-16T04:22:05;101164.72;;;22.33
62180;BMP280;48172;53.374;10.722;2022-10-16T04:24:32;101170.16;;;22.33
62180;BMP280;48172;53.374;10.722;2022-10-16T04:26:58;101174.41;;;22.34
62180;BMP280;48172;53.374;10.722;2022-10-16T04:29:24;101176.84;;;22.32
62180;BMP280;48172;53.374;10.722;2022-10-16T04:31:51;101178.81;;;22.32
62180;BMP280;48172;53.374;10.722;2022-10-16T04:34:17;101176.06;;;22.32
62180;BMP280;48172;53.374;10.722;2022-10-16T04:36:47;101186.22;;;22.31
62180;BMP280;48172;53.374;10.722;2022-10-16T04:39:14;101187.41;;;22.30
62180;BMP280;48172;53.374;10.722;2022-10-16T04:41:42;101194.38;;;22.31
62180;BMP280;48172;53.374;10.722;2022-10-16T04:44:08;101190.91;;;22.31
62180;BMP280;48172;53.374;10.722;2022-10-16T04:46:35;101198.31;;;22.30
62180;BMP280;48172;53.374;10.722;2022-10-16T04:49:01;101206.47;;;22.30
62180;BMP280;48172;53.374;10.722;2022-10-16T04:51:27;101199.50;;;22.29
62180;BMP280;48172;53.374;10.722;2022-10-16T04:53:54;101208.13;;;22.28
62180;BMP280;48172;53.374;10.722;2022-10-16T04:56:21;101210.41;;;22.29
62180;BMP280;48172;53.374;10.722;2022-10-16T04:58:48;101211.59;;;22.28
62180;BMP280;48172;53.374;10.722;2022-10-16T05:01:14;101214.03;;;22.26
62180;BMP280;48172;53.374;10.722;2022-10-16T05:03:40;101211.59;;;22.28
62180;BMP280;48172;53.374;10.722;2022-10-16T05:06:07;101202.38;;;22.26
62180;BMP280;48172;53.374;10.722;2022-10-16T05:08:33;101204.34;;;22.25
62180;BMP280;48172;53.374;10.722;2022-10-16T05:11:00;101210.84;;;22.28
62180;BMP280;48172;53.374;10.722;2022-10-16T05:13:27;101206.91;;;22.29
62180;BMP280;48172;53.374;10.722;2022-10-16T05:15:54;101215.22;;;22.25
62180;BMP280;48172;53.374;10.722;2022-10-16T05:18:20;101221.44;;;22.26
62180;BMP280;48172;53.374;10.722;2022-10-16T05:20:47;101216.00;;;22.26
62180;BMP280;48172;53.374;10.722;2022-10-16T05:23:13;101216.75;;;22.26
62180;BMP280;48172;53.374;10.722;2022-10-16T05:25:39;101225.38;;;22.25
62180;BMP280;48172;53.374;10.722;2022-10-16T05:28:06;101224.91;;;22.26
62180;BMP280;48172;53.374;10.722;2022-10-16T05:30:32;101228.84;;;22.25
62180;BMP280;48172;53.374;10.722;2022-10-16T05:32:59;101231.56;;;22.25
62180;BMP280;48172;53.374;10.722;2022-10-16T05:35:25;101236.25;;;22.25
62180;BMP280;48172;53.374;10.722;2022-10-16T05:37:52;101238.25;;;22.24
62180;BMP280;48172;53.374;10.722;2022-10-16T05:40:18;101243.69;;;22.24
62180;BMP280;48172;53.374;10.722;2022-10-16T05:42:45;101232.47;;;22.22
62180;BMP280;48172;53.374;10.722;2022-10-16T05:45:11;101245.31;;;22.22
62180;BMP280;48172;53.374;10.722;2022-10-16T05:47:39;101248.03;;;22.22
62180;BMP280;48172;53.374;10.722;2022-10-16T05:50:06;101251.50;;;22.22
62180;BMP280;48172;53.374;10.722;2022-10-16T05:52:32;101251.50;;;22.22
62180;BMP280;48172;53.374;10.722;2022-10-16T05:54:59;101248.50;;;22.20
62180;BMP280;48172;53.374;10.722;2022-10-16T05:57:25;101243.34;;;22.22
62180;BMP280;48172;53.374;10.722;2022-10-16T05:59:52;101247.28;;;22.21
62180;BMP280;48172;53.374;10.722;2022-10-16T06:02:19;101251.50;;;22.22
62180;BMP280;48172;53.374;10.722;2022-10-16T06:04:45;101262.88;;;22.21
62180;BMP280;48172;53.374;10.722;2022-10-16T06:07:11;101258.94;;;22.22
62180;BMP280;48172;53.374;10.722;2022-10-16T06:09:38;101265.88;;;22.23
62180;BMP280;48172;53.374;10.722;2022-10-16T06:12:04;101265.13;;;22.22
62180;BMP280;48172;53.374;10.722;2022-10-16T06:14:32;101256.19;;;22.22
62180;BMP280;48172;53.374;10.722;2022-10-16T06:16:58;101256.97;;;22.22
62180;BMP280;48172;53.374;10.722;2022-10-16T06:19:25;101266.03;;;22.19
62180;BMP280;48172;53.374;10.722;2022-10-16T06:21:51;101264.50;;;22.18
62180;BMP280;48172;53.374;10.722;2022-10-16T06:24:18;101265.59;;;22.21
62180;BMP280;48172;53.374;10.722;2022-10-16T06:26:44;101255.44;;;22.21
62180;BMP280;48172;53.374;10.722;2022-10-16T06:29:11;101257.44;;;22.21
62180;BMP280;48172;53.374;10.722;2022-10-16T06:31:37;101256.69;;;22.20
62180;BMP280;48172;53.374;10.722;2022-10-16T06:34:04;101264.50;;;22.18
62180;BMP280;48172;53.374;10.722;2022-10-16T06:36:35;101271.47;;;22.19
62180;BMP280;48172;53.374;10.722;2022-10-16T06:39:02;101274.19;;;22.19
62180;BMP280;48172;53.374;10.722;2022-10-16T06:41:29;101280.84;;;22.18
62180;BMP280;48172;53.374;10.722;2022-10-16T06:43:55;101280.09;;;22.18
62180;BMP280;48172;53.374;10.722;2022-10-16T06:46:23;101282.81;;;22.18
62180;BMP280;48172;53.374;10.722;2022-10-16T06:48:51;101294.44;;;22.18
62180;BMP280;48172;53.374;10.722;2022-10-16T06:51:22;101293.69;;;22.18
62180;BMP280;48172;53.374;10.722;2022-10-16T06:53:51;101298.69;;;22.19
62180;BMP280;48172;53.374;10.722;2022-10-16T06:56:34;101302.59;;;22.18
62180;BMP280;48172;53.374;10.722;2022-10-16T06:59:01;101298.84;;;22.16
62180;BMP280;48172;53.374;10.722;2022-10-16T07:01:28;101308.53;;;22.17
62180;BMP280;48172;53.374;10.722;2022-10-16T07:03:54;101307.00;;;22.16
62180;BMP280;48172;53.374;10.722;2022-10-16T07:06:23;101317.13;;;22.15
62180;BMP280;48172;53.374;10.722;2022-10-16T07:08:50;101317.41;;;22.17
62180;BMP280;48172;53.374;10.722;2022-10-16T07:11:19;101316.69;;;22.17
62180;BMP280;48172;53.374;10.722;2022-10-16T07:13:47;101314.41;;;22.15
62180;BMP280;48172;53.374;10.722;2022-10-16T07:16:23;101319.88;;;22.15
62180;BMP280;48172;53.374;10.722;2022-10-16T07:18:49;101325.31;;;22.15
62180;BMP280;48172;53.374;10.722;2022-10-16T07:21:21;101329.97;;;22.15
62180;BMP280;48172;53.374;10.722;2022-10-16T07:23:55;101325.31;;;22.15
62180;BMP280;48172;53.374;10.722;2022-10-16T07:26:24;101317.13;;;22.15
62180;BMP280;48172;53.374;10.722;2022-10-16T07:28:50;101320.28;;;22.14
62180;BMP280;48172;53.374;10.722;2022-10-16T07:31:21;101325.72;;;22.14
62180;BMP280;48172;53.374;10.722;2022-10-16T07:33:48;101328.44;;;22.14
62180;BMP280;48172;53.374;10.722;2022-10-16T07:36:16;101328.78;;;22.16
62180;BMP280;48172;53.374;10.722;2022-10-16T07:38:44;101338.91;;;22.15
62180;BMP280;48172;53.374;10.722;2022-10-16T07:41:13;101339.66;;;22.16
62180;BMP280;48172;53.374;10.722;2022-10-16T07:43:44;101340.09;;;22.14
62180;BMP280;48172;53.374;10.722;2022-10-16T07:46:11;101343.56;;;22.15
62180;BMP280;48172;53.374;10.722;2022-10-16T07:48:38;101353.69;;;22.14
62180;BMP280;48172;53.374;10.722;2022-10-16T07:51:05;101358.72;;;22.16
62180;BMP280;48172;53.374;10.722;2022-10-16T07:53:33;101358.25;;;22.17
62180;BMP280;48172;53.374;10.722;2022-10-16T07:56:02;101375.31;;;22.18
62180;BMP280;48172;53.374;10.722;2022-10-16T07:58:29;101367.91;;;22.18
62180;BMP280;48172;53.374;10.722;2022-10-16T08:00:56;101369.44;;;22.19
62180;BMP280;48172;53.374;10.722;2022-10-16T08:03:23;101370.22;;;22.20
62180;BMP280;48172;53.374;10.722;2022-10-16T08:05:50;101377.19;;;22.21
62180;BMP280;48172;53.374;10.722;2022-10-16T08:08:17;101377.19;;;22.21
62180;BMP280;48172;53.374;10.722;2022-10-16T08:10:45;101371.75;;;22.21
62180;BMP280;48172;53.374;10.722;2022-10-16T08:13:11;101380.63;;;22.21
62180;BMP280;48172;53.374;10.722;2022-10-16T08:15:42;101385.22;;;22.24
62180;BMP280;48172;53.374;10.722;2022-10-16T08:18:10;101389.44;;;22.25
62180;BMP280;48172;53.374;10.722;2022-10-16T08:20:37;101395.50;;;22.29
62180;BMP280;48172;53.374;10.722;2022-10-16T08:23:03;101392.31;;;22.31
62180;BMP280;48172;53.374;10.722;2022-10-16T08:25:30;101399.59;;;22.34
62180;BMP280;48172;53.374;10.722;2022-10-16T08:27:56;101403.81;;;22.35
62180;BMP280;48172;53.374;10.722;2022-10-16T08:30:24;101400.03;;;22.32
62180;BMP280;48172;53.374;10.722;2022-10-16T08:32:51;101404.59;;;22.36
62180;BMP280;48172;53.374;10.722;2022-10-16T08:35:17;101405.34;;;22.36
62180;BMP280;48172;53.374;10.722;2022-10-16T08:37:44;101404.88;;;22.38
62180;BMP280;48172;53.374;10.722;2022-10-16T08:40:17;101405.63;;;22.38
62180;BMP280;48172;53.374;10.722;2022-10-16T08:50:40;101404.91;;;22.56
62180;BMP280;48172;53.374;10.722;2022-10-16T08:53:18;101402.66;;;22.63
62180;BMP280;48172;53.374;10.722;2022-10-16T08:55:50;101407.81;;;22.71
62180;BMP280;48172;53.374;10.722;2022-10-16T08:58:19;101398.63;;;22.77
62180;BMP280;48172;53.374;10.722;2022-10-16T09:01:00;101405.44;;;22.82
62180;BMP280;48172;53.374;10.722;2022-10-16T09:16:35;101424.03;;;23.11
62180;BMP280;48172;53.374;10.722;2022-10-16T09:19:17;101419.47;;;23.17
62180;BMP280;48172;53.374;10.722;2022-10-16T09:21:46;101425.88;;;23.23
62180;BMP280;48172;53.374;10.722;2022-10-16T09:24:17;101422.50;;;23.28
62180;BMP280;48172;53.374;10.722;2022-10-16T09:26:45;101430.09;;;23.33
62180;BMP280;48172;53.374;10.722;2022-10-16T09:29:14;101426.28;;;23.39
62180;BMP280;48172;53.374;10.722;2022-10-16T09:31:41;101424.16;;;23.44
62180;BMP280;48172;53.374;10.722;2022-10-16T09:34:31;101429.91;;;23.46
62180;BMP280;48172;53.374;10.722;2022-10-16T09:36:59;101429.31;;;23.51
62180;BMP280;48172;53.374;10.722;2022-10-16T09:39:26;101435.34;;;23.55
62180;BMP280;48172;53.374;10.722;2022-10-16T09:41:54;101432.47;;;23.58
62180;BMP280;48172;53.374;10.722;2022-10-16T09:44:29;101442.00;;;23.63
62180;BMP280;48172;53.374;10.722;2022-10-16T09:47:04;101437.91;;;23.67
62180;BMP280;48172;53.374;10.722;2022-10-16T09:49:31;101435.47;;;23.69
62180;BMP280;48172;53.374;10.722;2022-10-16T09:52:14;101436.84;;;23.74
62180;BMP280;48172;53.374;10.722;2022-10-16T09:54:50;101448.31;;;23.78
62180;BMP280;48172;53.374;10.722;2022-10-16T09:57:17;101441.94;;;23.81
62180;BMP280;48172;53.374;10.722;2022-10-16T09:59:48;101455.09;;;23.83
62180;BMP280;48172;53.374;10.722;2022-10-16T10:02:18;101448.00;;;23.85
62180;BMP280;48172;53.374;10.722;2022-10-16T10:04:52;101456.47;;;23.87
62180;BMP280;48172;53.374;10.722;2022-10-16T10:07:25;101460.56;;;23.92
62180;BMP280;48172;53.374;10.722;2022-10-16T10:09:55;101453.41;;;23.94
62180;BMP280;48172;53.374;10.722;2022-10-16T10:12:27;101469.63;;;23.98
62180;BMP280;48172;53.374;10.722;2022-10-16T10:14:56;101462.50;;;24.00
62180;BMP280;48172;53.374;10.722;2022-10-16T10:17:25;101473.28;;;24.04
62180;BMP280;48172;53.374;10.722;2022-10-16T10:19:54;101469.63;;;24.07
62180;BMP280;48172;53.374;10.722;2022-10-16T10:22:26;101468.69;;;24.10
62180;BMP280;48172;53.374;10.722;2022-10-16T10:24:59;101466.25;;;24.12
62180;BMP280;48172;53.374;10.722;2022-10-16T10:27:38;101464.56;;;24.15
62180;BMP280;48172;53.374;10.722;2022-10-16T10:30:27;101475.03;;;24.16
62180;BMP280;48172;53.374;10.722;2022-10-16T10:44:07;101487.41;;;24.26
62180;BMP280;48172;53.374;10.722;2022-10-16T10:46:51;101485.75;;;24.29
62180;BMP280;48172;53.374;10.722;2022-10-16T10:52:34;101492.53;;;24.33
62180;BMP280;48172;53.374;10.722;2022-10-16T10:55:37;101493.13;;;24.37
62180;BMP280;48172;53.374;10.722;2022-10-16T10:58:27;101485.97;;;24.40
62180;BMP280;48172;53.374;10.722;2022-10-16T11:01:13;101494.00;;;24.43
62180;BMP280;48172;53.374;10.722;2022-10-16T11:04:01;101487.63;;;24.47
62180;BMP280;48172;53.374;10.722;2022-10-16T11:06:39;101500.63;;;24.52
62180;BMP280;48172;53.374;10.722;2022-10-16T11:09:24;101503.97;;;24.56
62180;BMP280;48172;53.374;10.722;2022-10-16T11:11:57;101499.84;;;24.60
62180;BMP280;48172;53.374;10.722;2022-10-16T11:17:02;101498.72;;;24.67
62180;BMP280;48172;53.374;10.722;2022-10-16T11:22:42;101514.78;;;24.74
62180;BMP280;48172;53.374;10.722;2022-10-16T11:27:47;101526.31;;;24.78
62180;BMP280;48172;53.374;10.722;2022-10-16T11:30:29;101519.59;;;24.79
62180;BMP280;48172;53.374;10.722;2022-10-16T11:41:45;101534.00;;;24.79
62180;BMP280;48172;53.374;10.722;2022-10-16T11:47:05;101536.47;;;24.77
62180;BMP280;48172;53.374;10.722;2022-10-16T11:50:00;101543.63;;;24.75
62180;BMP280;48172;53.374;10.722;2022-10-16T11:55:21;101546.22;;;24.69
62180;BMP280;48172;53.374;10.722;2022-10-16T11:57:54;101542.75;;;24.69
62180;BMP280;48172;53.374;10.722;2022-10-16T12:03:29;101544.59;;;24.63
62180;BMP280;48172;53.374;10.722;2022-10-16T12:06:18;101547.03;;;24.61
62180;BMP280;48172;53.374;10.722;2022-10-16T12:08:51;101541.75;;;24.57
62180;BMP280;48172;53.374;10.722;2022-10-16T12:11:35;101542.97;;;24.56
62180;BMP280;48172;53.374;10.722;2022-10-16T12:16:50;101549.03;;;24.51
62180;BMP280;48172;53.374;10.722;2022-10-16T12:19:17;101554.25;;;24.49
62180;BMP280;48172;53.374;10.722;2022-10-16T12:21:45;101560.63;;;24.46
62180;BMP280;48172;53.374;10.722;2022-10-16T12:26:56;101560.78;;;24.42
62180;BMP280;48172;53.374;10.722;2022-10-16T12:29:39;101566.41;;;24.39
62180;BMP280;48172;53.374;10.722;2022-10-16T12:32:30;101568.09;;;24.36
62180;BMP280;48172;53.374;10.722;2022-10-16T12:35:21;101572.06;;;24.35
62180;BMP280;48172;53.374;10.722;2022-10-16T12:37:49;101562.78;;;24.33
62180;BMP280;48172;53.374;10.722;2022-10-16T12:42:48;101584.03;;;24.29
62180;BMP280;48172;53.374;10.722;2022-10-16T12:47:53;101569.03;;;24.24
62180;BMP280;48172;53.374;10.722;2022-10-16T12:50:37;101568.00;;;24.22
62180;BMP280;48172;53.374;10.722;2022-10-16T12:53:21;101582.09;;;24.20
62180;BMP280;48172;53.374;10.722;2022-10-16T12:56:09;101594.22;;;24.19
62180;BMP280;48172;53.374;10.722;2022-10-16T12:59:04;101594.72;;;24.18
62180;BMP280;48172;53.374;10.722;2022-10-16T13:07:37;101595.78;;;24.11
62180;BMP280;48172;53.374;10.722;2022-10-16T13:11:08;101598.97;;;24.09
62180;BMP280;48172;53.374;10.722;2022-10-16T13:19:11;101616.69;;;24.05
62180;BMP280;48172;53.374;10.722;2022-10-16T13:30:50;101638.56;;;23.96
62180;BMP280;48172;53.374;10.722;2022-10-16T13:35:58;101643.72;;;23.94
62180;BMP280;48172;53.374;10.722;2022-10-16T13:38:27;101646.44;;;23.94
62180;BMP280;48172;53.374;10.722;2022-10-16T13:43:27;101650.56;;;23.89
62180;BMP280;48172;53.374;10.722;2022-10-16T13:46:00;101665.41;;;23.88
62180;BMP280;48172;53.374;10.722;2022-10-16T13:48:28;101660.38;;;23.87
62180;BMP280;48172;53.374;10.722;2022-10-16T13:51:04;101659.63;;;23.86
62180;BMP280;48172;53.374;10.722;2022-10-16T13:53:32;101666.78;;;23.84
62180;BMP280;48172;53.374;10.722;2022-10-16T13:56:02;101671.91;;;23.82
62180;BMP280;48172;53.374;10.722;2022-10-16T13:58:29;101675.09;;;23.80
62180;BMP280;48172;53.374;10.722;2022-10-16T14:01:19;101682.53;;;23.80
62180;BMP280;48172;53.374;10.722;2022-10-16T14:03:45;101679.03;;;23.79
62180;BMP280;48172;53.374;10.722;2022-10-16T14:06:18;101680.25;;;23.78
62180;BMP280;48172;53.374;10.722;2022-10-16T14:09:05;101685.88;;;23.75
62180;BMP280;48172;53.374;10.722;2022-10-16T14:11:45;101685.53;;;23.72
62180;BMP280;48172;53.374;10.722;2022-10-16T14:14:12;101691.00;;;23.72
62180;BMP280;48172;53.374;10.722;2022-10-16T14:16:40;101690.72;;;23.70
62180;BMP280;48172;53.374;10.722;2022-10-16T14:19:21;101689.19;;;23.69
62180;BMP280;48172;53.374;10.722;2022-10-16T14:21:50;101685.41;;;23.67
62180;BMP280;48172;53.374;10.722;2022-10-16T14:24:35;101691.31;;;23.65
62180;BMP280;48172;53.374;10.722;2022-10-16T14:27:28;101690.56;;;23.65
62180;BMP280;48172;53.374;10.722;2022-10-16T14:29:48;101699.19;;;23.63
62180;BMP280;48172;53.374;10.722;2022-10-16T14:32:23;101700.38;;;23.62
62180;BMP280;48172;53.374;10.722;2022-10-16T14:34:54;101709.78;;;23.61
62180;BMP280;48172;53.374;10.722;2022-10-16T14:37:25;101719.94;;;23.61
62180;BMP280;48172;53.374;10.722;2022-10-16T14:39:54;101713.75;;;23.60
62180;BMP280;48172;53.374;10.722;2022-10-16T14:42:24;101720.06;;;23.57
62180;BMP280;48172;53.374;10.722;2022-10-16T14:44:52;101725.22;;;23.55
62180;BMP280;48172;53.374;10.722;2022-10-16T14:47:21;101731.13;;;23.54
62180;BMP280;48172;53.374;10.722;2022-10-16T14:49:53;101733.13;;;23.53
62180;BMP280;48172;53.374;10.722;2022-10-16T14:52:25;101737.34;;;23.54
62180;BMP280;48172;53.374;10.722;2022-10-16T14:54:51;101738.25;;;23.51
62180;BMP280;48172;53.374;10.722;2022-10-16T14:57:24;101739.44;;;23.50
62180;BMP280;48172;53.374;10.722;2022-10-16T14:59:53;101737.63;;;23.47
62180;BMP280;48172;53.374;10.722;2022-10-16T15:02:34;101742.34;;;23.47
62180;BMP280;48172;53.374;10.722;2022-10-16T15:08:06;101747.47;;;23.45
62180;BMP280;48172;53.374;10.722;2022-10-16T15:10:38;101752.94;;;23.45
62180;BMP280;48172;53.374;10.722;2022-10-16T15:13:05;101755.34;;;23.43
62180;BMP280;48172;53.374;10.722;2022-10-16T15:15:35;101750.66;;;23.43
62180;BMP280;48172;53.374;10.722;2022-10-16T15:18:04;101757.34;;;23.42
62180;BMP280;48172;53.374;10.722;2022-10-16T15:20:33;101755.78;;;23.41
62180;BMP280;48172;53.374;10.722;2022-10-16T15:23:21;101751.53;;;23.40
62180;BMP280;48172;53.374;10.722;2022-10-16T15:25:53;101750.78;;;23.39
62180;BMP280;48172;53.374;10.722;2022-10-16T15:28:21;101756.72;;;23.38
62180;BMP280;48172;53.374;10.722;2022-10-16T15:30:50;101757.91;;;23.37
62180;BMP280;48172;53.374;10.722;2022-10-16T15:33:19;101755.31;;;23.33
62180;BMP280;48172;53.374;10.722;2022-10-16T15:35:47;101754.13;;;23.34
62180;BMP280;48172;53.374;10.722;2022-10-16T15:38:14;101765.47;;;23.33
62180;BMP280;48172;53.374;10.722;2022-10-16T15:40:41;101770.91;;;23.33
62180;BMP280;48172;53.374;10.722;2022-10-16T15:43:08;101767.44;;;23.32
62180;BMP280;48172;53.374;10.722;2022-10-16T15:45:35;101773.03;;;23.29
62180;BMP280;48172;53.374;10.722;2022-10-16T15:48:01;101767.88;;;23.31
62180;BMP280;48172;53.374;10.722;2022-10-16T15:50:29;101783.47;;;23.30